.
WxDataArchive / Data Records for 2011-01-01
2010-12-31 January 2011 2011-01-02

Data Records for Saturday, 01 January 2011

Time	Temp	Chill	HIndex	Humid	Dewpt	 Wind 	HiWind	WindDir	Rain 	Barom 
-----	----	-----	------	-----	-----	------	------	-------	-----	----- 
00:00	53.8	53.8	53.8	91	51.2	0	1	90	0.01	29.807 
00:05	53.6	53.6	53.6	92	51.3	1	3	90	0.00	29.807 
00:10	53.5	53.5	53.5	92	51.2	0	2	112	0.01	29.807 
00:15	53.5	53.5	53.5	92	51.2	1	3	135	0.00	29.796 
00:20	53.5	53.5	53.5	92	51.2	1	2	135	0.00	29.796 
00:25	53.5	53.5	53.5	92	51.2	1	3	135	0.00	29.796 
00:30	53.6	53.6	53.6	92	51.3	1	4	68	0.00	29.795 
00:35	53.6	53.6	53.6	92	51.3	1	4	90	0.01	29.795 
00:40	53.6	53.6	53.6	92	51.3	2	3	112	0.02	29.795 
00:45	53.6	53.6	53.6	92	51.3	1	3	112	0.01	29.797 
00:50	53.6	53.6	53.6	92	51.3	1	5	90	0.01	29.797 
00:55	53.6	53.6	53.6	92	51.3	0	2	158	0.02	29.797 
01:00	53.5	53.5	53.5	92	51.2	1	5	68	0.03	29.795 
01:05	53.5	53.5	53.5	92	51.2	2	4	68	0.01	29.795 
01:10	53.5	53.5	53.5	92	51.2	1	6	90	0.01	29.795 
01:15	53.5	53.5	53.5	92	51.2	1	4	225	0.01	29.794 
01:20	53.5	53.5	53.5	93	51.5	1	6	270	0.02	29.794 
01:25	53.3	53.3	53.3	93	51.3	0	3	270	0.02	29.794 
01:30	53.3	53.3	53.3	93	51.3	1	4	90	0.01	29.798 
01:35	53.2	53.2	53.2	93	51.2	1	3	338	0.03	29.798 
01:40	53.2	53.2	53.2	93	51.2	1	3	158	0.01	29.798 
01:45	53.2	53.2	53.2	93	51.2	1	4	45	0.02	29.786 
01:50	53.2	53.2	53.2	93	51.2	1	3	22	0.03	29.786 
01:55	53.2	53.2	53.2	93	51.2	1	5	90	0.01	29.786 
02:00	53.2	53.2	53.2	93	51.2	2	6	90	0.01	29.775 
02:05	53.2	53.2	53.2	93	51.2	3	6	112	0.02	29.775 
02:10	53.1	53.1	53.1	93	51.1	1	4	112	0.00	29.775 
02:15	53.1	53.1	53.1	93	51.1	2	9	90	0.00	29.761 
02:20	53.1	53.1	53.1	93	51.1	1	4	68	0.00	29.761 
02:25	52.9	52.9	52.9	93	50.9	2	5	90	0.01	29.761 
02:30	52.9	52.9	52.9	93	50.9	1	5	90	0.00	29.760 
02:35	52.9	52.9	52.9	93	50.9	1	3	90	0.00	29.760 
02:40	52.8	52.8	52.8	93	50.8	1	3	90	0.00	29.760 
02:45	52.8	52.8	52.8	93	50.8	1	5	90	0.01	29.761 
02:50	52.9	52.9	52.9	93	50.9	2	6	90	0.00	29.761 
02:55	52.9	52.9	52.9	93	50.9	1	6	270	0.00	29.761 
03:00	52.9	52.9	52.9	93	50.9	1	3	90	0.00	29.761 
03:05	52.9	52.9	52.9	93	50.9	2	7	90	0.01	29.761 
03:10	52.9	52.9	52.9	93	50.9	1	4	90	0.01	29.761 
03:15	52.8	52.8	52.8	93	50.8	1	3	248	0.00	29.755 
03:20	52.9	52.9	52.9	93	50.9	1	4	0	0.00	29.755 
03:25	52.9	52.9	52.9	94	51.2	1	6	270	0.00	29.755 
03:30	52.9	52.9	52.9	94	51.2	1	4	248	0.00	29.749 
03:35	53.1	53.1	53.1	94	51.4	2	7	248	0.00	29.749 
03:40	53.1	53.1	53.1	94	51.4	1	3	270	0.00	29.749 
03:45	52.9	52.9	52.9	94	51.2	1	3	270	0.00	29.738 
03:50	52.9	52.9	52.9	94	51.2	1	4	270	0.00	29.738 
03:55	52.9	52.9	52.9	94	51.2	1	3	248	0.00	29.738 
04:00	52.9	52.9	52.9	94	51.2	0	3	248	0.00	29.749 
04:05	52.9	52.9	52.9	94	51.2	0	3	248	0.00	29.749 
04:10	52.8	52.8	52.8	94	51.1	0	3	248	0.00	29.749 
04:15	52.8	52.8	52.8	94	51.1	0	3	248	0.01	29.747 
04:20	52.8	52.8	52.8	94	51.1	0	2	248	0.00	29.747 
04:25	52.8	52.8	52.8	94	51.1	0	2	248	0.01	29.747 
04:30	52.8	52.8	52.8	94	51.1	1	4	248	0.01	29.745 
04:35	52.8	52.8	52.8	94	51.1	0	3	270	0.01	29.745 
04:40	52.8	52.8	52.8	94	51.1	0	2	270	0.00	29.745 
04:45	52.8	52.8	52.8	95	51.4	1	2	270	0.01	29.752 
04:50	52.8	52.8	52.8	95	51.4	0	2	270	0.01	29.752 
04:55	52.8	52.8	52.8	95	51.4	0	2	270	0.00	29.752 
05:00	52.6	52.6	52.6	95	51.2	0	2	270	0.00	29.747 
05:05	52.6	52.6	52.6	95	51.2	0	2	270	0.00	29.747 
05:10	52.6	52.6	52.6	95	51.2	0	1	270	0.00	29.747 
05:15	52.5	52.5	52.5	95	51.1	0	2	270	0.00	29.755 
05:20	52.5	52.5	52.5	95	51.1	0	2	270	0.00	29.755 
05:25	52.5	52.5	52.5	95	51.1	1	3	270	0.01	29.755 
05:30	52.5	52.5	52.5	95	51.1	0	2	270	0.01	29.773 
05:35	52.5	52.5	52.5	95	51.1	0	2	270	0.01	29.773 
05:40	52.5	52.5	52.5	95	51.1	0	3	270	0.01	29.773 
05:45	52.3	52.3	52.3	95	50.9	0	4	270	0.01	29.760 
05:50	52.5	52.5	52.5	95	51.1	1	3	270	0.01	29.760 
05:55	52.5	52.5	52.5	95	51.1	2	4	270	0.00	29.760 
06:00	52.3	52.3	52.3	95	50.9	1	3	270	0.01	29.761 
06:05	52.2	52.2	52.2	95	50.8	0	2	270	0.00	29.761 
06:10	51.9	51.9	51.9	95	50.5	0	2	270	0.01	29.761 
06:15	51.7	51.7	51.7	95	50.3	0	2	270	0.00	29.764 
06:20	51.6	51.6	51.6	95	50.2	0	0	---	0.01	29.764 
06:25	51.6	51.6	51.6	95	50.2	0	0	---	0.00	29.764 
06:30	51.4	51.4	51.4	95	50.0	0	0	---	0.00	29.744 
06:35	51.3	51.3	51.3	96	50.2	0	1	270	0.00	29.744 
06:40	51.4	51.4	51.4	96	50.3	0	0	---	0.00	29.744 
06:45	51.4	51.4	51.4	96	50.3	0	1	270	0.00	29.747 
06:50	51.4	51.4	51.4	96	50.3	0	1	270	0.00	29.747 
06:55	51.3	51.3	51.3	96	50.2	0	1	270	0.00	29.747 
07:00	51.3	51.3	51.3	96	50.2	0	2	270	0.00	29.745 
07:05	51.3	51.3	51.3	96	50.2	0	4	270	0.00	29.745 
07:10	51.3	51.3	51.3	96	50.2	1	4	270	0.00	29.745 
07:15	51.1	51.1	51.1	96	50.0	2	7	248	0.00	29.763 
07:20	47.3	45.8	47.3	92	45.1	4	7	270	0.00	29.763 
07:25	44.2	42.2	44.2	91	41.7	4	7	270	0.01	29.763 
07:30	43.2	41.0	43.2	89	40.2	4	6	270	0.00	29.790 
07:35	42.8	42.8	42.8	87	39.2	3	5	270	0.00	29.790 
07:40	42.5	42.5	42.5	84	38.0	3	5	270	0.00	29.790 
07:45	42.5	42.5	42.5	80	36.8	3	4	270	0.00	29.813 
07:50	42.3	42.3	42.3	77	35.6	2	4	270	0.00	29.813 
07:55	42.2	42.2	42.2	77	35.5	1	3	270	0.00	29.813 
08:00	42.1	42.1	42.1	77	35.4	1	3	270	0.00	29.805 
08:05	42.1	42.1	42.1	78	35.7	2	4	270	0.00	29.805 
08:10	41.9	41.9	41.9	79	35.9	1	3	270	0.00	29.805 
08:15	41.9	41.9	41.9	79	35.9	2	3	225	0.00	29.816 
08:20	41.9	41.9	41.9	81	36.5	1	3	225	0.00	29.816 
08:25	41.9	41.9	41.9	82	36.8	1	3	225	0.00	29.816 
08:30	41.9	41.9	41.9	82	36.8	1	5	225	0.00	29.811 
08:35	41.8	41.8	41.8	81	36.4	2	4	248	0.00	29.811 
08:40	41.6	41.6	41.6	80	35.9	1	5	248	0.00	29.811 
08:45	41.5	41.5	41.5	78	35.2	2	6	248	0.00	29.817 
08:50	40.9	40.9	40.9	71	32.2	3	10	270	0.00	29.817 
08:55	40.6	40.6	40.6	66	30.1	3	10	248	0.00	29.817 
09:00	40.2	40.2	40.2	59	27.0	3	6	248	0.00	29.826 
09:05	40.1	40.1	40.1	58	26.5	3	6	248	0.00	29.826 
09:10	39.9	37.2	39.9	57	25.9	4	9	270	0.00	29.826 
09:15	39.6	36.9	39.6	52	23.4	4	6	270	0.00	29.838 
09:20	39.5	36.7	39.5	48	21.5	4	10	270	0.00	29.838 
09:25	39.3	39.3	39.3	50	22.2	3	7	270	0.00	29.838 
09:30	39.3	39.3	39.3	49	21.8	3	7	270	0.00	29.842 
09:35	39.2	39.2	39.2	49	21.7	3	6	270	0.00	29.842 
09:40	39.2	39.2	39.2	51	22.6	3	6	270	0.00	29.842 
09:45	39.1	39.1	39.1	52	23.0	2	6	270	0.00	29.848 
09:50	39.1	39.1	39.1	55	24.3	2	4	270	0.00	29.848 
09:55	39.1	39.1	39.1	55	24.3	1	3	270	0.00	29.848 
10:00	39.2	39.2	39.2	58	25.7	2	7	225	0.00	29.850 
10:05	39.2	39.2	39.2	59	26.1	2	6	270	0.00	29.850 
10:10	39.3	39.3	39.3	61	27.0	2	5	248	0.00	29.850 
10:15	39.5	39.5	39.5	62	27.6	2	5	270	0.00	29.852 
10:20	39.5	39.5	39.5	63	28.0	2	4	248	0.00	29.852 
10:25	39.5	39.5	39.5	64	28.3	2	5	248	0.00	29.852 
10:30	39.9	39.9	39.9	65	29.1	2	4	248	0.00	29.855 
10:35	40.3	40.3	40.3	65	29.5	2	3	248	0.00	29.855 
10:40	40.6	40.6	40.6	65	29.8	3	9	270	0.00	29.855 
10:45	40.9	40.9	40.9	66	30.4	3	5	270	0.00	29.857 
10:50	40.9	40.9	40.9	65	30.1	3	6	248	0.00	29.857 
10:55	41.1	41.1	41.1	65	30.2	3	6	270	0.00	29.857 
11:00	41.2	41.2	41.2	66	30.7	2	10	248	0.00	29.852 
11:05	41.3	41.3	41.3	65	30.4	3	9	248	0.00	29.852 
11:10	41.5	41.5	41.5	66	31.0	3	11	248	0.00	29.852 
11:15	41.6	39.2	41.6	65	30.7	4	11	248	0.00	29.853 
11:20	41.9	41.9	41.9	65	31.0	3	7	248	0.00	29.853 
11:25	41.6	39.2	41.6	62	29.6	4	11	248	0.00	29.853 
11:30	41.5	41.5	41.5	62	29.5	3	6	270	0.00	29.855 
11:35	41.3	38.8	41.3	63	29.7	4	10	270	0.00	29.855 
11:40	41.1	38.6	41.1	65	30.2	4	8	270	0.00	29.855 
11:45	40.8	38.2	40.8	63	29.2	4	9	270	0.00	29.856 
11:50	40.5	37.9	40.5	58	26.9	4	10	248	0.00	29.856 
11:55	40.2	36.7	40.2	54	24.9	5	11	270	0.00	29.856 
12:00	39.9	36.4	39.9	51	23.3	5	10	270	0.00	29.857 
12:05	39.8	36.2	39.8	49	22.2	5	13	270	0.00	29.857 
12:10	39.6	36.0	39.6	51	23.0	5	12	270	0.00	29.857 
12:15	39.5	36.7	39.5	54	24.2	4	8	270	0.00	29.855 
12:20	39.3	36.5	39.3	57	25.4	4	10	270	0.00	29.855 
12:25	39.3	39.3	39.3	58	25.8	3	10	270	0.00	29.855 
12:30	39.5	39.5	39.5	60	26.8	2	7	292	0.00	29.854 
12:35	39.3	39.3	39.3	60	26.6	3	7	270	0.00	29.854 
12:40	39.3	39.3	39.3	57	25.4	3	10	270	0.00	29.854 
12:45	39.3	36.5	39.3	55	24.5	4	9	270	0.00	29.857 
12:50	39.2	36.4	39.2	55	24.4	4	11	270	0.00	29.857 
12:55	38.8	38.8	38.8	58	25.3	3	11	248	0.00	29.857 
13:00	38.3	38.3	38.3	59	25.2	3	11	270	0.00	29.855 
13:05	38.0	38.0	38.0	61	25.8	3	7	248	0.00	29.855 
13:10	37.6	37.6	37.6	62	25.8	3	9	248	0.00	29.855 
13:15	37.3	37.3	37.3	63	25.9	2	5	225	0.00	29.848 
13:20	37.2	37.2	37.2	65	26.5	2	4	225	0.00	29.848 
13:25	36.9	36.9	36.9	66	26.6	3	9	270	0.00	29.848 
13:30	37.0	37.0	37.0	68	27.4	3	7	270	0.00	29.855 
13:35	37.2	37.2	37.2	68	27.6	3	6	248	0.00	29.855 
13:40	37.6	34.5	37.6	68	28.0	4	7	270	0.00	29.855 
13:45	37.6	34.5	37.6	68	28.0	4	10	270	0.00	29.859 
13:50	37.9	34.9	37.9	69	28.7	4	6	270	0.00	29.859 
13:55	37.3	33.3	37.3	67	27.4	5	8	270	0.00	29.859 
14:00	36.9	32.8	36.9	66	26.6	5	11	270	0.00	29.866 
14:05	36.9	33.7	36.9	63	25.5	4	9	270	0.00	29.866 
14:10	37.2	34.1	37.2	64	26.2	4	9	270	0.00	29.866 
14:15	37.3	34.2	37.3	63	25.9	4	8	270	0.00	29.871 
14:20	37.3	34.2	37.3	61	25.1	4	10	270	0.00	29.871 
14:25	36.9	33.7	36.9	61	24.7	4	9	270	0.00	29.871 
14:30	36.6	33.4	36.6	59	23.6	4	7	270	0.00	29.874 
14:35	36.3	33.0	36.3	57	22.5	4	11	270	0.00	29.874 
14:40	36.0	31.8	36.0	58	22.7	5	11	270	0.00	29.874 
14:45	35.6	30.5	35.6	58	22.3	6	14	248	0.00	29.889 
14:50	35.5	35.5	35.5	64	24.5	3	7	270	0.00	29.889 
14:55	35.3	35.3	35.3	65	24.7	2	4	270	0.00	29.889 
15:00	34.9	31.4	34.9	66	24.7	4	10	270	0.00	29.887 
15:05	34.4	30.8	34.4	65	23.9	4	10	248	0.00	29.887 
15:10	33.4	27.9	33.4	61	21.4	6	15	270	0.00	29.887 
15:15	32.4	27.5	32.4	57	18.9	5	9	270	0.00	29.906 
15:20	31.8	26.8	31.8	57	18.3	5	11	270	0.00	29.906 
15:25	31.3	27.3	31.3	55	17.0	4	9	270	0.00	29.906 
15:30	31.2	27.2	31.2	56	17.4	4	11	248	0.00	29.912 
15:35	30.7	25.5	30.7	57	17.3	5	10	270	0.00	29.912 
15:40	30.4	26.2	30.4	58	17.4	4	9	270	0.00	29.912 
15:45	30.4	26.2	30.4	60	18.2	4	10	270	0.00	29.927 
15:50	30.3	26.1	30.3	60	18.1	4	11	248	0.00	29.927 
15:55	30.0	24.7	30.0	60	17.8	5	11	270	0.00	29.927 
16:00	30.0	25.8	30.0	62	18.6	4	11	270	0.00	29.931 
16:05	29.7	25.4	29.7	58	16.8	4	11	248	0.00	29.931 
16:10	29.5	29.5	29.5	57	16.2	3	10	248	0.00	29.931 
16:15	29.4	25.1	29.4	57	16.1	4	9	270	0.00	29.940 
16:20	29.1	24.7	29.1	56	15.4	4	12	248	0.00	29.940 
16:25	29.0	29.0	29.0	55	14.9	3	8	248	0.00	29.940 
16:30	28.8	28.8	28.8	55	14.7	3	6	270	0.00	29.944 
16:35	28.8	24.4	28.8	53	13.9	4	13	270	0.00	29.944 
16:40	28.8	24.4	28.8	53	13.9	4	9	270	0.00	29.944 
16:45	28.8	24.4	28.8	53	13.9	4	8	270	0.00	29.946 
16:50	28.8	28.8	28.8	54	14.3	3	5	248	0.00	29.946 
16:55	28.7	28.7	28.7	54	14.2	2	6	248	0.00	29.946 
17:00	28.5	24.0	28.5	52	13.1	4	12	270	0.00	29.952 
17:05	28.4	22.8	28.4	52	13.0	5	13	270	0.00	29.952 
17:10	28.1	23.6	28.1	53	13.2	4	9	270	0.00	29.952 
17:15	27.9	23.3	27.9	54	13.4	4	10	270	0.00	29.962 
17:20	27.8	23.2	27.8	54	13.3	4	11	270	0.00	29.962 
17:25	27.8	27.8	27.8	56	14.2	3	6	270	0.00	29.962 
17:30	27.6	23.0	27.6	56	14.0	4	7	248	0.00	29.970 
17:35	27.6	27.6	27.6	57	14.4	2	6	292	0.00	29.970 
17:40	27.5	27.5	27.5	58	14.7	3	6	270	0.00	29.970 
17:45	27.3	22.6	27.3	57	14.1	4	9	270	0.00	29.978 
17:50	27.2	27.2	27.2	58	14.4	3	9	270	0.00	29.978 
17:55	27.0	27.0	27.0	58	14.2	3	10	248	0.00	29.978 
18:00	26.9	26.9	26.9	59	14.5	3	8	248	0.00	29.983 
18:05	26.9	26.9	26.9	59	14.5	2	9	248	0.00	29.983 
18:10	26.6	21.8	26.6	58	13.8	4	10	248	0.00	29.983 
18:15	26.6	21.8	26.6	59	14.2	4	7	248	0.00	29.993 
18:20	26.4	26.4	26.4	59	14.0	3	7	248	0.00	29.993 
18:25	26.3	21.5	26.3	59	13.9	4	8	270	0.00	29.993 
18:30	26.1	26.1	26.1	60	14.1	3	11	248	0.00	30.009 
18:35	26.1	20.1	26.1	58	13.4	5	12	270	0.00	30.009 
18:40	26.0	21.1	26.0	58	13.3	4	9	270	0.00	30.009 
18:45	25.8	20.9	25.8	58	13.1	4	10	270	0.00	30.013 
18:50	25.7	20.8	25.7	59	13.4	4	11	270	0.00	30.013 
18:55	25.6	20.7	25.6	59	13.3	4	11	270	0.00	30.013 
19:00	25.6	20.7	25.6	59	13.3	4	9	270	0.00	30.023 
19:05	25.6	25.6	25.6	59	13.3	3	7	248	0.00	30.023 
19:10	25.4	25.4	25.4	60	13.5	3	5	248	0.00	30.023 
19:15	25.4	25.4	25.4	59	13.1	3	7	270	0.00	30.038 
19:20	25.3	25.3	25.3	60	13.4	3	6	270	0.00	30.038 
19:25	25.1	20.1	25.1	59	12.8	4	8	270	0.00	30.038 
19:30	25.1	20.1	25.1	59	12.8	4	9	270	0.00	30.052 
19:35	25.1	25.1	25.1	59	12.8	3	9	270	0.00	30.052 
19:40	25.1	25.1	25.1	59	12.8	3	9	270	0.00	30.052 
19:45	25.1	20.1	25.1	59	12.8	4	9	270	0.00	30.055 
19:50	25.1	20.1	25.1	59	12.8	4	10	270	0.00	30.055 
19:55	25.1	20.1	25.1	59	12.8	4	7	270	0.00	30.055 
20:00	25.1	20.1	25.1	59	12.8	4	10	270	0.00	30.066 
20:05	25.1	25.1	25.1	60	13.2	3	7	248	0.00	30.066 
20:10	25.1	25.1	25.1	60	13.2	3	10	248	0.00	30.066 
20:15	25.0	20.0	25.0	60	13.1	4	11	270	0.00	30.071 
20:20	24.8	19.8	24.8	58	12.1	4	15	270	0.00	30.071 
20:25	24.8	19.8	24.8	58	12.1	4	10	270	0.00	30.071 
20:30	24.7	18.5	24.7	58	12.1	5	7	270	0.00	30.079 
20:35	24.5	24.5	24.5	58	11.9	3	6	248	0.00	30.079 
20:40	24.5	19.4	24.5	58	11.9	4	9	248	0.00	30.079 
20:45	24.4	19.3	24.4	58	11.8	4	8	270	0.00	30.084 
20:50	24.4	18.1	24.4	58	11.8	5	9	270	0.00	30.084 
20:55	24.2	19.1	24.2	58	11.6	4	9	270	0.00	30.084 
21:00	24.2	17.9	24.2	58	11.6	5	12	270	0.00	30.086 
21:05	24.1	19.0	24.1	58	11.5	4	10	270	0.00	30.086 
21:10	24.1	19.0	24.1	58	11.5	4	9	270	0.00	30.086 
21:15	24.1	19.0	24.1	59	11.9	4	9	270	0.00	30.088 
21:20	23.9	18.7	23.9	59	11.7	4	10	270	0.00	30.088 
21:25	23.9	23.9	23.9	60	12.1	3	5	270	0.00	30.088 
21:30	23.8	17.4	23.8	60	12.0	5	10	270	0.00	30.090 
21:35	23.8	18.6	23.8	60	12.0	4	11	270	0.00	30.090 
21:40	23.6	18.4	23.6	60	11.8	4	11	270	0.00	30.090 
21:45	23.6	23.6	23.6	61	12.2	3	7	270	0.00	30.091 
21:50	23.6	18.4	23.6	60	11.8	4	9	270	0.00	30.091 
21:55	23.6	18.4	23.6	61	12.2	4	10	270	0.00	30.091 
22:00	23.6	18.4	23.6	61	12.2	4	12	270	0.00	30.096 
22:05	23.5	18.3	23.5	62	12.4	4	10	270	0.00	30.096 
22:10	23.5	23.5	23.5	62	12.4	3	7	248	0.00	30.096 
22:15	23.3	23.3	23.3	63	12.6	3	7	270	0.00	30.102 
22:20	23.2	17.9	23.2	63	12.5	4	7	270	0.00	30.102 
22:25	23.0	17.7	23.0	62	11.9	4	7	270	0.00	30.102 
22:30	22.9	17.6	22.9	62	11.9	4	11	270	0.00	30.102 
22:35	22.9	17.6	22.9	60	11.1	4	11	270	0.00	30.102 
22:40	22.7	15.2	22.7	59	10.6	6	14	270	0.00	30.102 
22:45	22.7	16.2	22.7	58	10.2	5	9	270	0.00	30.105 
22:50	22.5	17.1	22.5	58	10.0	4	9	270	0.00	30.105 
22:55	22.5	17.1	22.5	57	9.6	4	9	270	0.00	30.105 
23:00	22.5	22.5	22.5	57	9.6	3	7	270	0.00	30.104 
23:05	22.5	14.9	22.5	57	9.6	6	15	270	0.00	30.104 
23:10	22.5	17.1	22.5	57	9.6	4	9	270	0.00	30.104 
23:15	22.4	15.8	22.4	57	9.5	5	11	270	0.00	30.119 
23:20	22.4	15.8	22.4	57	9.5	5	10	248	0.00	30.119 
23:25	22.4	17.0	22.4	57	9.5	4	9	270	0.00	30.119 
23:30	22.2	16.8	22.2	57	9.3	4	10	270	0.00	30.119 
23:35	22.2	16.8	22.2	57	9.3	4	7	248	0.00	30.119 
23:40	22.1	14.4	22.1	56	8.8	6	17	270	0.00	30.119 
23:45	22.1	22.1	22.1	57	9.2	3	7	270	0.00	30.122 
23:50	21.9	16.4	21.9	57	9.0	4	9	270	0.00	30.122 
23:55	21.8	15.1	21.8	55	8.1	5	10	270	0.00	30.122 

CoCoRaHS
IN-AL-39
A2 Web Hosting
Creative Commons License
GoDaddy
search engine by freefind advanced

loaded 2018-11-15 05:44:25 • last modified 2010-11-18 10:43:29
Privacy PolicyDisclaimer
• wx.awcolley.com is powered by PmWiki v.2002016 •
• all content (unless otherwise noted) © 2018 A W Colley